WetterOnline ( http://www.wetteronline.de )

Wetter aktuell Frankfurt (Oder)

Aktuelles Wetter: Manschnow (16m)

6-stündlich | Neueste Meldungen
Ortszeit Temperatur Wetter
Di, 13.11. 19:00 9.9° C wolkig
Di, 13.11. 13:00 10.3° C leichter Regen
Di, 13.11. 7:00 7.9° C bedeckt
Di, 13.11. 1:00 11.7° C bedeckt
Mo, 12.11. 19:00 11.4° C wolkig
Mo, 12.11. 13:00 14.3° C bedeckt
Mo, 12.11. 7:00 7.3° C bedeckt
Mo, 12.11. 1:00 7.0° C wolkig
Ortszeit Temperatur Wetter
Mi, 14.11. 0:30 8.1° C bedeckt
Mi, 14.11. 0:20 8.1° C bedeckt
Mi, 14.11. 0:10 8.1° C bedeckt
Mi, 14.11. 0:00 8.4° C bedeckt
Di, 13.11. 23:50 8.4° C bedeckt
Di, 13.11. 23:40 8.3° C bedeckt
Di, 13.11. 23:30 8.1° C bedeckt
Di, 13.11. 23:00 7.5° C wolkig
Di, 13.11. 22:30 7.5° C wolkenlos
Di, 13.11. 22:00 7.9° C wolkenlos
Di, 13.11. 21:30 8.5° C leicht bewölkt
Ortszeit Relative Feuchte Sichtweite
Di, 13.11. 19:00 82% 70 km
Di, 13.11. 13:00 96% 4.0 km
Di, 13.11. 7:00 90% 9 km
Di, 13.11. 1:00 72% 16 km
Mo, 12.11. 19:00 80% 11 km
Mo, 12.11. 13:00 70% 21 km
Mo, 12.11. 7:00 91% 6 km
Mo, 12.11. 1:00 91% 6 km
Ortszeit Relative Feuchte Sichtweite
Mi, 14.11. 0:30 88% 27 km
Mi, 14.11. 0:20 88% -
Mi, 14.11. 0:10 88% -
Mi, 14.11. 0:00 88% 25 km
Di, 13.11. 23:50 88% -
Di, 13.11. 23:40 88% -
Di, 13.11. 23:30 89% 27 km
Di, 13.11. 23:00 90% 24 km
Di, 13.11. 22:30 90% 35 km
Di, 13.11. 22:00 88% 65 km
Di, 13.11. 21:30 85% 70 km
Ortszeit Niederschlagsmenge Niederschlagsart
Di, 13.11. 19:00 13 l/m2 in 12 Std. Regenschauer
Di, 13.11. 13:00 6 l/m2 in 6 Std. Regen
Di, 13.11. 7:00 0.1 l/m2 in 12 Std. -
Di, 13.11. 1:00 0.1 l/m2 in 6 Std. Regen
Mo, 12.11. 19:00 0.0 l/m2 in 12 Std. -
Mo, 12.11. 13:00 0.0 l/m2 in 6 Std. -
Mo, 12.11. 7:00 0.1 l/m2 in 12 Std. Regen
Mo, 12.11. 1:00 0.0 l/m2 in 6 Std. -
Ortszeit Niederschlagsmenge Niederschlagsart
Mi, 14.11. 0:30 0.0 l/m2 in 1 Std. -
Mi, 14.11. 0:20 keine Meldung -
Mi, 14.11. 0:10 keine Meldung -
Mi, 14.11. 0:00 0.0 l/m2 in 1 Std. -
Di, 13.11. 23:50 keine Meldung -
Di, 13.11. 23:40 keine Meldung -
Di, 13.11. 23:30 0.0 l/m2 in 1 Std. -
Di, 13.11. 23:00 0.0 l/m2 in 1 Std. -
Di, 13.11. 22:30 0.0 l/m2 in 1 Std. -
Di, 13.11. 22:00 0.0 l/m2 in 1 Std. -
Di, 13.11. 21:30 0.0 l/m2 in 1 Std. -
Ortszeit Stärke Spitze Richtung
km/h Bft. km/h Grad Sektor
Di, 13.11. 19:00 15 3 39 230° SW
Di, 13.11. 13:00 11 2 14 240° SW
Di, 13.11. 7:00 4 1 22 170° S
Di, 13.11. 1:00 15 3 26 180° S
Mo, 12.11. 19:00 14 3 29 160° S
Mo, 12.11. 13:00 14 3 25 150° SO
Mo, 12.11. 7:00 7 2 18 140° SO
Mo, 12.11. 1:00 7 2 22 140° SO
Ortszeit Stärke Spitze Richtung
km/h Bft. km/h Grad Sektor
Mi, 14.11. 0:30 18 3 25 240° SW
Mi, 14.11. 0:20 18 3 - 240° SW
Mi, 14.11. 0:10 17 3 - 240° SW
Mi, 14.11. 0:00 14 3 25 240° SW
Di, 13.11. 23:50 14 3 - 240° SW
Di, 13.11. 23:40 14 3 - 240° SW
Di, 13.11. 23:30 14 3 22 230° SW
Di, 13.11. 23:00 14 3 22 240° SW
Di, 13.11. 22:30 15 3 22 230° SW
Di, 13.11. 22:00 14 3 25 240° SW
Di, 13.11. 21:30 18 3 25 240° SW
Ortszeit Untergrenze Bedeckung Gattung
total tief tief mittel hoch
Di, 13.11. 19:00 1800 m 7/8 1/8 - - -
Di, 13.11. 13:00 210 m 7/8 7/8 - - -
Di, 13.11. 7:00 1380 m 8/8 8/8 - - -
Di, 13.11. 1:00 2100 m 8/8 8/8 - - -
Mo, 12.11. 19:00 9000 m 8/8 0/8 - - -
Mo, 12.11. 13:00 3000 m 8/8 8/8 - - -
Mo, 12.11. 7:00 4500 m 8/8 8/8 - - -
Mo, 12.11. 1:00 2100 m 8/8 3/8 - - -
Ortszeit Bedeckungsgrad in Achtel und Wolkenuntergrenze
Mi, 14.11. 0:30 2(900m) 7(1500m) 8(2100m)
Mi, 14.11. 0:20 2(900m) 7(1500m) 8(2100m)
Mi, 14.11. 0:10 7(1500m) 8(2100m)
Mi, 14.11. 0:00 1(1050m) 6(1500m) 8(1800m)
Di, 13.11. 23:50 1(1050m) 6(1500m) 8(1800m)
Di, 13.11. 23:40 1(1050m) 4(1470m) 8(1800m)
Di, 13.11. 23:30 5(1350m) 8(1500m) 8(1800m)
Di, 13.11. 23:00 5(1500m) 7(1500m)
Di, 13.11. 22:30 keine Wolken
Di, 13.11. 22:00 keine Wolken
Di, 13.11. 21:30 3(1260m) 2(2100m)
Ortszeit Luftdruck NN (hPa) Tendenz (hPa in 3 Std.)
Di, 13.11. 19:00 1024 + 1,2
Di, 13.11. 13:00 1022 + 0,9
Di, 13.11. 7:00 1020 0,0
Di, 13.11. 1:00 1018 - 0,1
Mo, 12.11. 19:00 1018 + 0,4
Mo, 12.11. 13:00 1018 - 0,2
Mo, 12.11. 7:00 1018 0,0
Mo, 12.11. 1:00 1017 + 1,0
Ortszeit Luftdruck NN (hPa) Tendenz (hPa in 3 Std.)
Mi, 14.11. 0:30 1027 + 1,0
Mi, 14.11. 0:20 1027 keine Meldung
Mi, 14.11. 0:10 1027 keine Meldung
Mi, 14.11. 0:00 1026 + 1,2
Di, 13.11. 23:50 1026 keine Meldung
Di, 13.11. 23:40 1026 keine Meldung
Di, 13.11. 23:30 1026 + 1,6
Di, 13.11. 23:00 1026 + 1,7
Di, 13.11. 22:30 1026 + 1,7
Di, 13.11. 22:00 1026 + 1,9
Di, 13.11. 21:30 1026 + 2,0
Ortszeit Schneehöhe (cm)
Di, 13.11. 19:00 0
Di, 13.11. 13:00 0
Di, 13.11. 7:00 0
Di, 13.11. 1:00 0
Mo, 12.11. 19:00 0
Mo, 12.11. 13:00 0
Mo, 12.11. 7:00 0
Mo, 12.11. 1:00 0
Ortszeit Schneehöhe (cm)
Mi, 14.11. 0:30 0
Mi, 14.11. 0:20 0
Mi, 14.11. 0:10 0
Mi, 14.11. 0:00 0
Di, 13.11. 23:50 0
Di, 13.11. 23:40 0
Di, 13.11. 23:30 0
Di, 13.11. 23:00 0
Di, 13.11. 22:30 0
Di, 13.11. 22:00 0
Di, 13.11. 21:30 0
Link zu dieser Seite / Seite empfehlen

Das Wetter in ...